Monday, July 28, 2014
08:25 UTC
  |  Log In   |  Register Free
Airport Search:

Coffeyville Municipal Airport
(KCFV)

Coffeyville Municipal Airport Diagram
No Airport Diagram Available

FAA data valid effective July 24, 2014 until September 18, 2014 (unless otherwise noted).

 
 
 
 
 
 
 
 
 
 
 
 
 
 

Current Aviation Weather for Coffeyville Municipal Airport (KCFV)

The most recent METAR observation for KCFV was updated at: 0652 UTC
METAR Summary (Translated METAR)
KCFV
280652Z AUTO 00000KT 3/4SM HZ CLR 20/16 A3013 RMK AO2 SLP196 T02000156 $
KPPF
(14.6 nm NE from KCFV)
280752Z AUTO 02005KT 10SM CLR 21/14 A3015 RMK AO2 SLP200 T02060139
TAF Summary (Translated TAF)
KBVO
(28.9 nm SW from KCFV)
280520Z 2806/2906 00000KT 6SM BR FEW250 FM281500 02007KT P6SM FEW250 FM290100 03003KT P6SM SKC
  Airport Weather Conditions for KCFV

 Current Weather at CFV
65° F
Fair with Haze
North winds at 3.5 mph
CFV NOAA Radar

Pressure: 30.13 in
Humidity: 84%
Wind: North at 3.5 MPH (3 KT)
Dew Point: 60.1°F
Visibility: 0.75 mi


Airport Weather Forecast for KCFV

Translated METAR and TAF for KCFV
Translated METAR for KCFV (0818 UTC 28 July 2014)
found at http://aviationweather.gov/adds/metars/
 
METAR text: KCFV 280810Z AUTO 35003KT 1SM HZ CLR 18/16 A3014 RMK AO2 T01830156 $
Conditions at: KCFV (COFFEYVILLE , KS, US) observed 0810 UTC 28 July 2014
Temperature: 18.3°C (65°F)
Dewpoint: 15.6°C (60°F) [RH = 84%]
Pressure (altimeter): 30.14 inches Hg (1020.7 mb)
Winds: from the N (350 degrees) at 3 MPH (3 knots; 1.6 m/s)
Visibility: 1.00 miles (1.61 km)
Ceiling: at least 12,000 feet AGL
Clouds: sky clear below 12,000 feet AGL
Weather: HZ  (haze)
SOME DATA ABOVE MAY BE INACCURATE!!!
"$" is an indication the sensor requires maintenance
Translated TAF for KCFV

There is no translated TAF available for this airport

Find All Airport Services Find A Hotel Find A Rental Car Find A Golf Course Find A Restaurant $100 Hamburger



FBO's on the Field
FBO Company Facility Photos Services Transportation Aviation Fuel Prices: Prices include tax
Catering Weather Repair Courtesy Rental Type 100LL JetA JetA+ MOGAS 8087
 
Coffeyville Aircraft, Inc

This FBO has not yet been rated
FS:Phillips66
Last Updated: Jul-21
Login to update fuel prices
SS:
Contact Coffeyville Aircraft, IncMore FBO Information
 
Add another FBO Facility Photos Catering Weather Repair Courtesy Rental Type 100LL JetA JetA+ MOGAS 8087
Services Transportation Aviation Fuel Prices: Prices include tax


GlobalAir.com Airport Resource Center model-print
model-print
model-print
model-print